KTYR/TYR METAR and TAF weather

Enter ICAO airport designator
Station Type Date Time Source
KTYR METAR 2019/06/27 07:53 UTC NOAA

KTYR 270753Z AUTO 00000KT 10SM CLR 22/21 A3014 RMK AO2 SLP198 T02170206


Station Type Date Time Source
KTYR Decoded METAR 2019/06/27 07:53 UTC NOAA

TYLER POUNDS FIELDS, TX, United States (KTYR) 32-21N 095-24W 165M
Jun 27, 2019 - 03:53 AM EDT / 2019.06.27 0753 UTC
Wind: Calm:0
Visibility: 10 mile(s):0
Sky conditions: clear
Temperature: 71.1 F (21.7 C)
Dew Point: 69.1 F (20.6 C)
Relative Humidity: 93%
Pressure (altimeter): 30.14 in. Hg (1020 hPa)
ob: KTYR 270753Z AUTO 00000KT 10SM CLR 22/21 A3014 RMK AO2 SLP198 T02170206
cycle: 8

Station Type Date Time Source
KTYR TAF 2019/06/27 06:22 UTC NOAA

TAF KTYR 270520Z 2706/2806 00000KT P6SM SKC
FM271000 19006KT P6SM BKN025 BKN100
TEMPO 2710/2714 4SM BR BKN015
FM271400 19006KT P6SM BKN050
FM271800 19005KT P6SM BKN250

Example: see airport list